sensor_id;sensor_type;location;lat;lon;timestamp;P1;durP1;ratioP1;P2;durP2;ratioP2
79047;SDS011;68680;50.764;6.120;2024-01-25T00:00:55;60.45;;;10.30;;
79047;SDS011;68680;50.764;6.120;2024-01-25T00:03:21;72.00;;;11.73;;
79047;SDS011;68680;50.764;6.120;2024-01-25T00:05:46;76.13;;;10.43;;
79047;SDS011;68680;50.764;6.120;2024-01-25T00:08:12;68.20;;;13.15;;
79047;SDS011;68680;50.764;6.120;2024-01-25T00:10:39;62.47;;;10.18;;
79047;SDS011;68680;50.764;6.120;2024-01-25T00:13:04;75.05;;;13.75;;
79047;SDS011;68680;50.764;6.120;2024-01-25T00:15:32;51.90;;;8.60;;
79047;SDS011;68680;50.764;6.120;2024-01-25T00:17:57;69.97;;;11.98;;
79047;SDS011;68680;50.764;6.120;2024-01-25T00:20:23;60.10;;;10.00;;
79047;SDS011;68680;50.764;6.120;2024-01-25T00:22:49;60.03;;;9.23;;
79047;SDS011;68680;50.764;6.120;2024-01-25T00:25:15;62.78;;;10.38;;
79047;SDS011;68680;50.764;6.120;2024-01-25T00:27:40;56.33;;;9.38;;
79047;SDS011;68680;50.764;6.120;2024-01-25T00:30:07;48.78;;;9.00;;
79047;SDS011;68680;50.764;6.120;2024-01-25T00:32:35;59.40;;;9.65;;
79047;SDS011;68680;50.764;6.120;2024-01-25T00:35:01;66.65;;;9.45;;
79047;SDS011;68680;50.764;6.120;2024-01-25T00:37:28;47.63;;;8.38;;
79047;SDS011;68680;50.764;6.120;2024-01-25T00:39:55;57.45;;;9.93;;
79047;SDS011;68680;50.764;6.120;2024-01-25T00:42:21;63.90;;;9.45;;
79047;SDS011;68680;50.764;6.120;2024-01-25T00:44:48;56.70;;;10.57;;
79047;SDS011;68680;50.764;6.120;2024-01-25T00:47:15;55.85;;;10.00;;
79047;SDS011;68680;50.764;6.120;2024-01-25T00:49:43;62.90;;;10.68;;
79047;SDS011;68680;50.764;6.120;2024-01-25T00:52:10;57.00;;;11.93;;
79047;SDS011;68680;50.764;6.120;2024-01-25T00:54:37;67.70;;;10.35;;
79047;SDS011;68680;50.764;6.120;2024-01-25T00:57:03;66.15;;;12.63;;
79047;SDS011;68680;50.764;6.120;2024-01-25T00:59:30;59.22;;;11.32;;
79047;SDS011;68680;50.764;6.120;2024-01-25T01:01:58;54.58;;;9.70;;
79047;SDS011;68680;50.764;6.120;2024-01-25T01:04:25;66.55;;;11.30;;
79047;SDS011;68680;50.764;6.120;2024-01-25T01:06:53;68.97;;;11.07;;
79047;SDS011;68680;50.764;6.120;2024-01-25T01:09:20;76.05;;;11.73;;
79047;SDS011;68680;50.764;6.120;2024-01-25T01:11:46;66.40;;;11.90;;
79047;SDS011;68680;50.764;6.120;2024-01-25T01:14:12;62.38;;;10.82;;
79047;SDS011;68680;50.764;6.120;2024-01-25T01:16:38;78.55;;;13.30;;
79047;SDS011;68680;50.764;6.120;2024-01-25T01:19:03;58.25;;;10.77;;
79047;SDS011;68680;50.764;6.120;2024-01-25T01:21:29;57.30;;;10.15;;
79047;SDS011;68680;50.764;6.120;2024-01-25T01:23:56;49.45;;;10.63;;
79047;SDS011;68680;50.764;6.120;2024-01-25T01:26:22;61.45;;;12.38;;
79047;SDS011;68680;50.764;6.120;2024-01-25T01:28:48;61.63;;;11.27;;
79047;SDS011;68680;50.764;6.120;2024-01-25T01:31:14;72.15;;;12.18;;
79047;SDS011;68680;50.764;6.120;2024-01-25T01:33:39;61.00;;;11.02;;
79047;SDS011;68680;50.764;6.120;2024-01-25T01:36:05;68.88;;;12.80;;
79047;SDS011;68680;50.764;6.120;2024-01-25T01:38:31;59.90;;;11.45;;
79047;SDS011;68680;50.764;6.120;2024-01-25T01:40:59;59.03;;;11.15;;
79047;SDS011;68680;50.764;6.120;2024-01-25T01:43:24;59.85;;;11.02;;
79047;SDS011;68680;50.764;6.120;2024-01-25T01:45:50;75.65;;;12.60;;
79047;SDS011;68680;50.764;6.120;2024-01-25T01:48:16;56.92;;;11.70;;
79047;SDS011;68680;50.764;6.120;2024-01-25T01:50:42;72.50;;;11.07;;
79047;SDS011;68680;50.764;6.120;2024-01-25T01:53:09;63.05;;;12.25;;
79047;SDS011;68680;50.764;6.120;2024-01-25T01:55:36;55.75;;;13.57;;
79047;SDS011;68680;50.764;6.120;2024-01-25T01:58:04;70.70;;;12.10;;
79047;SDS011;68680;50.764;6.120;2024-01-25T02:00:30;61.13;;;11.07;;
79047;SDS011;68680;50.764;6.120;2024-01-25T02:02:58;55.90;;;11.95;;
79047;SDS011;68680;50.764;6.120;2024-01-25T02:05:24;58.95;;;10.57;;
79047;SDS011;68680;50.764;6.120;2024-01-25T02:07:50;61.33;;;12.70;;
79047;SDS011;68680;50.764;6.120;2024-01-25T02:10:16;70.90;;;12.32;;
79047;SDS011;68680;50.764;6.120;2024-01-25T02:12:42;67.43;;;11.38;;
79047;SDS011;68680;50.764;6.120;2024-01-25T02:15:09;65.25;;;11.88;;
79047;SDS011;68680;50.764;6.120;2024-01-25T02:17:35;63.55;;;12.40;;
79047;SDS011;68680;50.764;6.120;2024-01-25T02:20:01;63.30;;;12.65;;
79047;SDS011;68680;50.764;6.120;2024-01-25T02:22:29;60.67;;;11.23;;
79047;SDS011;68680;50.764;6.120;2024-01-25T02:24:55;70.13;;;14.32;;
79047;SDS011;68680;50.764;6.120;2024-01-25T02:27:21;58.72;;;12.98;;
79047;SDS011;68680;50.764;6.120;2024-01-25T02:29:46;60.95;;;12.40;;
79047;SDS011;68680;50.764;6.120;2024-01-25T02:32:12;74.22;;;12.27;;
79047;SDS011;68680;50.764;6.120;2024-01-25T02:34:38;64.05;;;12.30;;
79047;SDS011;68680;50.764;6.120;2024-01-25T02:37:04;61.85;;;12.18;;
79047;SDS011;68680;50.764;6.120;2024-01-25T02:39:31;63.58;;;13.30;;
79047;SDS011;68680;50.764;6.120;2024-01-25T02:41:57;50.50;;;12.68;;
79047;SDS011;68680;50.764;6.120;2024-01-25T02:44:22;70.45;;;13.23;;
79047;SDS011;68680;50.764;6.120;2024-01-25T02:46:48;69.85;;;12.63;;
79047;SDS011;68680;50.764;6.120;2024-01-25T02:49:14;64.43;;;10.90;;
79047;SDS011;68680;50.764;6.120;2024-01-25T02:51:39;70.10;;;12.73;;
79047;SDS011;68680;50.764;6.120;2024-01-25T02:54:05;69.57;;;11.18;;
79047;SDS011;68680;50.764;6.120;2024-01-25T02:56:32;81.95;;;13.68;;
79047;SDS011;68680;50.764;6.120;2024-01-25T02:58:58;62.22;;;11.98;;
79047;SDS011;68680;50.764;6.120;2024-01-25T03:01:24;83.45;;;17.38;;
79047;SDS011;68680;50.764;6.120;2024-01-25T03:03:50;70.95;;;13.35;;
79047;SDS011;68680;50.764;6.120;2024-01-25T03:06:15;65.45;;;13.32;;
79047;SDS011;68680;50.764;6.120;2024-01-25T03:08:41;66.45;;;12.45;;
79047;SDS011;68680;50.764;6.120;2024-01-25T03:11:07;72.65;;;12.88;;
79047;SDS011;68680;50.764;6.120;2024-01-25T03:13:34;62.20;;;12.13;;
79047;SDS011;68680;50.764;6.120;2024-01-25T03:16:00;70.13;;;14.80;;
79047;SDS011;68680;50.764;6.120;2024-01-25T03:18:25;75.47;;;12.85;;
79047;SDS011;68680;50.764;6.120;2024-01-25T03:20:51;68.05;;;10.75;;
79047;SDS011;68680;50.764;6.120;2024-01-25T03:23:17;66.40;;;11.30;;
79047;SDS011;68680;50.764;6.120;2024-01-25T03:25:43;52.58;;;11.60;;
79047;SDS011;68680;50.764;6.120;2024-01-25T03:28:08;47.13;;;9.25;;
79047;SDS011;68680;50.764;6.120;2024-01-25T03:30:35;52.65;;;11.90;;
79047;SDS011;68680;50.764;6.120;2024-01-25T03:33:01;66.47;;;11.57;;
79047;SDS011;68680;50.764;6.120;2024-01-25T03:35:27;65.32;;;14.10;;
79047;SDS011;68680;50.764;6.120;2024-01-25T03:37:53;63.45;;;11.85;;
79047;SDS011;68680;50.764;6.120;2024-01-25T03:40:19;72.82;;;11.02;;
79047;SDS011;68680;50.764;6.120;2024-01-25T03:42:44;61.65;;;10.82;;
79047;SDS011;68680;50.764;6.120;2024-01-25T03:45:10;70.53;;;12.68;;
79047;SDS011;68680;50.764;6.120;2024-01-25T03:47:37;66.35;;;11.35;;
79047;SDS011;68680;50.764;6.120;2024-01-25T03:50:03;56.67;;;10.95;;
79047;SDS011;68680;50.764;6.120;2024-01-25T03:52:30;56.75;;;11.15;;
79047;SDS011;68680;50.764;6.120;2024-01-25T03:54:55;55.90;;;10.52;;
79047;SDS011;68680;50.764;6.120;2024-01-25T03:57:22;73.90;;;12.65;;
79047;SDS011;68680;50.764;6.120;2024-01-25T03:59:47;75.70;;;13.48;;
79047;SDS011;68680;50.764;6.120;2024-01-25T04:02:13;78.20;;;12.40;;
79047;SDS011;68680;50.764;6.120;2024-01-25T04:04:40;78.78;;;11.77;;
79047;SDS011;68680;50.764;6.120;2024-01-25T04:07:06;71.30;;;11.77;;
79047;SDS011;68680;50.764;6.120;2024-01-25T04:09:32;70.93;;;13.07;;
79047;SDS011;68680;50.764;6.120;2024-01-25T04:11:57;66.93;;;12.27;;
79047;SDS011;68680;50.764;6.120;2024-01-25T04:14:23;64.22;;;10.73;;
79047;SDS011;68680;50.764;6.120;2024-01-25T04:16:49;64.93;;;11.13;;
79047;SDS011;68680;50.764;6.120;2024-01-25T04:19:14;65.53;;;13.63;;
79047;SDS011;68680;50.764;6.120;2024-01-25T04:21:42;66.03;;;11.70;;
79047;SDS011;68680;50.764;6.120;2024-01-25T04:24:07;68.05;;;11.10;;
79047;SDS011;68680;50.764;6.120;2024-01-25T04:26:33;71.38;;;11.35;;
79047;SDS011;68680;50.764;6.120;2024-01-25T04:28:59;65.72;;;12.88;;
79047;SDS011;68680;50.764;6.120;2024-01-25T04:31:25;57.92;;;11.82;;
79047;SDS011;68680;50.764;6.120;2024-01-25T04:33:50;72.95;;;13.98;;
79047;SDS011;68680;50.764;6.120;2024-01-25T04:36:16;72.47;;;12.90;;
79047;SDS011;68680;50.764;6.120;2024-01-25T04:38:43;78.20;;;12.50;;
79047;SDS011;68680;50.764;6.120;2024-01-25T04:41:09;69.97;;;10.68;;
79047;SDS011;68680;50.764;6.120;2024-01-25T04:43:35;71.18;;;12.25;;
79047;SDS011;68680;50.764;6.120;2024-01-25T04:46:01;80.35;;;11.55;;
79047;SDS011;68680;50.764;6.120;2024-01-25T04:48:27;58.80;;;10.85;;
79047;SDS011;68680;50.764;6.120;2024-01-25T04:50:53;72.10;;;13.40;;
79047;SDS011;68680;50.764;6.120;2024-01-25T04:53:19;66.93;;;10.43;;
79047;SDS011;68680;50.764;6.120;2024-01-25T04:55:46;67.07;;;11.18;;
79047;SDS011;68680;50.764;6.120;2024-01-25T04:58:12;70.47;;;12.80;;
79047;SDS011;68680;50.764;6.120;2024-01-25T05:00:38;58.53;;;12.65;;
79047;SDS011;68680;50.764;6.120;2024-01-25T05:03:04;77.22;;;11.35;;
79047;SDS011;68680;50.764;6.120;2024-01-25T05:05:30;68.00;;;15.20;;
79047;SDS011;68680;50.764;6.120;2024-01-25T05:07:55;67.32;;;14.38;;
79047;SDS011;68680;50.764;6.120;2024-01-25T05:10:21;78.50;;;15.23;;
79047;SDS011;68680;50.764;6.120;2024-01-25T05:12:48;58.50;;;14.88;;
79047;SDS011;68680;50.764;6.120;2024-01-25T05:15:14;71.03;;;13.20;;
79047;SDS011;68680;50.764;6.120;2024-01-25T05:17:40;75.03;;;13.35;;
79047;SDS011;68680;50.764;6.120;2024-01-25T05:20:06;77.30;;;15.57;;
79047;SDS011;68680;50.764;6.120;2024-01-25T05:22:32;77.53;;;14.98;;
79047;SDS011;68680;50.764;6.120;2024-01-25T05:24:58;72.28;;;16.17;;
79047;SDS011;68680;50.764;6.120;2024-01-25T05:27:24;83.55;;;15.90;;
79047;SDS011;68680;50.764;6.120;2024-01-25T05:29:51;77.72;;;16.02;;
79047;SDS011;68680;50.764;6.120;2024-01-25T05:32:17;83.47;;;14.45;;
79047;SDS011;68680;50.764;6.120;2024-01-25T05:34:42;71.75;;;15.80;;
79047;SDS011;68680;50.764;6.120;2024-01-25T05:37:08;65.18;;;13.65;;
79047;SDS011;68680;50.764;6.120;2024-01-25T05:39:34;67.28;;;14.65;;
79047;SDS011;68680;50.764;6.120;2024-01-25T05:42:00;76.93;;;17.27;;
79047;SDS011;68680;50.764;6.120;2024-01-25T05:44:25;78.10;;;15.15;;
79047;SDS011;68680;50.764;6.120;2024-01-25T05:46:52;71.70;;;16.10;;
79047;SDS011;68680;50.764;6.120;2024-01-25T05:49:18;85.82;;;17.48;;
79047;SDS011;68680;50.764;6.120;2024-01-25T05:51:44;70.22;;;16.40;;
79047;SDS011;68680;50.764;6.120;2024-01-25T05:54:09;86.50;;;16.55;;
79047;SDS011;68680;50.764;6.120;2024-01-25T05:56:35;77.05;;;17.98;;
79047;SDS011;68680;50.764;6.120;2024-01-25T05:59:01;73.18;;;16.48;;
79047;SDS011;68680;50.764;6.120;2024-01-25T06:01:27;90.32;;;18.23;;
79047;SDS011;68680;50.764;6.120;2024-01-25T06:03:54;78.20;;;18.08;;
79047;SDS011;68680;50.764;6.120;2024-01-25T06:06:19;87.15;;;16.92;;
79047;SDS011;68680;50.764;6.120;2024-01-25T06:08:45;81.88;;;16.25;;
79047;SDS011;68680;50.764;6.120;2024-01-25T06:11:11;77.57;;;18.25;;
79047;SDS011;68680;50.764;6.120;2024-01-25T06:13:37;70.47;;;17.30;;
79047;SDS011;68680;50.764;6.120;2024-01-25T06:16:02;85.60;;;17.30;;
79047;SDS011;68680;50.764;6.120;2024-01-25T06:18:29;81.20;;;18.23;;
79047;SDS011;68680;50.764;6.120;2024-01-25T06:20:56;81.07;;;16.85;;
79047;SDS011;68680;50.764;6.120;2024-01-25T06:23:22;73.47;;;16.33;;
79047;SDS011;68680;50.764;6.120;2024-01-25T06:25:48;78.28;;;19.95;;
79047;SDS011;68680;50.764;6.120;2024-01-25T06:28:13;75.88;;;17.90;;
79047;SDS011;68680;50.764;6.120;2024-01-25T06:30:39;82.63;;;17.70;;
79047;SDS011;68680;50.764;6.120;2024-01-25T06:33:05;75.07;;;16.17;;
79047;SDS011;68680;50.764;6.120;2024-01-25T06:35:30;71.90;;;17.60;;
79047;SDS011;68680;50.764;6.120;2024-01-25T06:37:57;74.53;;;20.65;;
79047;SDS011;68680;50.764;6.120;2024-01-25T06:40:23;78.10;;;17.67;;
79047;SDS011;68680;50.764;6.120;2024-01-25T06:42:49;72.63;;;18.08;;
79047;SDS011;68680;50.764;6.120;2024-01-25T06:45:15;74.35;;;16.55;;
79047;SDS011;68680;50.764;6.120;2024-01-25T06:47:40;77.68;;;17.67;;
79047;SDS011;68680;50.764;6.120;2024-01-25T06:50:07;77.15;;;18.65;;
79047;SDS011;68680;50.764;6.120;2024-01-25T06:52:33;77.55;;;17.55;;
79047;SDS011;68680;50.764;6.120;2024-01-25T06:55:00;81.35;;;18.30;;
79047;SDS011;68680;50.764;6.120;2024-01-25T06:57:26;100.97;;;18.85;;
79047;SDS011;68680;50.764;6.120;2024-01-25T06:59:52;83.93;;;18.45;;
79047;SDS011;68680;50.764;6.120;2024-01-25T07:02:18;84.45;;;17.60;;
79047;SDS011;68680;50.764;6.120;2024-01-25T07:04:43;89.07;;;19.02;;
79047;SDS011;68680;50.764;6.120;2024-01-25T07:07:09;84.47;;;17.70;;
79047;SDS011;68680;50.764;6.120;2024-01-25T07:09:35;93.93;;;21.80;;
79047;SDS011;68680;50.764;6.120;2024-01-25T07:12:02;79.68;;;20.00;;
79047;SDS011;68680;50.764;6.120;2024-01-25T07:14:28;89.38;;;19.20;;
79047;SDS011;68680;50.764;6.120;2024-01-25T07:16:54;96.05;;;20.35;;
79047;SDS011;68680;50.764;6.120;2024-01-25T07:19:20;92.10;;;21.98;;
79047;SDS011;68680;50.764;6.120;2024-01-25T07:21:46;104.20;;;19.52;;
79047;SDS011;68680;50.764;6.120;2024-01-25T07:24:11;103.95;;;20.67;;
79047;SDS011;68680;50.764;6.120;2024-01-25T07:26:37;92.78;;;19.13;;
79047;SDS011;68680;50.764;6.120;2024-01-25T07:29:04;107.45;;;22.52;;
79047;SDS011;68680;50.764;6.120;2024-01-25T07:31:30;95.35;;;21.15;;
79047;SDS011;68680;50.764;6.120;2024-01-25T07:33:56;103.00;;;21.33;;
79047;SDS011;68680;50.764;6.120;2024-01-25T07:36:21;91.70;;;24.00;;
79047;SDS011;68680;50.764;6.120;2024-01-25T07:38:47;93.97;;;21.25;;
79047;SDS011;68680;50.764;6.120;2024-01-25T07:41:13;89.40;;;22.00;;
79047;SDS011;68680;50.764;6.120;2024-01-25T07:43:39;97.30;;;21.48;;
79047;SDS011;68680;50.764;6.120;2024-01-25T07:46:07;96.07;;;24.10;;
79047;SDS011;68680;50.764;6.120;2024-01-25T07:48:33;84.57;;;22.73;;
79047;SDS011;68680;50.764;6.120;2024-01-25T07:50:59;106.07;;;22.77;;
79047;SDS011;68680;50.764;6.120;2024-01-25T07:53:25;106.78;;;24.20;;
79047;SDS011;68680;50.764;6.120;2024-01-25T07:55:50;99.20;;;23.92;;
79047;SDS011;68680;50.764;6.120;2024-01-25T07:58:16;101.97;;;25.40;;
79047;SDS011;68680;50.764;6.120;2024-01-25T08:00:42;89.20;;;23.08;;
79047;SDS011;68680;50.764;6.120;2024-01-25T08:03:09;89.50;;;21.75;;
79047;SDS011;68680;50.764;6.120;2024-01-25T08:05:35;96.18;;;23.85;;
79047;SDS011;68680;50.764;6.120;2024-01-25T08:08:00;91.60;;;23.20;;
79047;SDS011;68680;50.764;6.120;2024-01-25T08:10:26;97.97;;;24.17;;
79047;SDS011;68680;50.764;6.120;2024-01-25T08:12:52;96.57;;;22.55;;
79047;SDS011;68680;50.764;6.120;2024-01-25T08:15:18;99.60;;;22.45;;
79047;SDS011;68680;50.764;6.120;2024-01-25T08:17:44;98.00;;;22.77;;
79047;SDS011;68680;50.764;6.120;2024-01-25T08:20:11;94.43;;;22.50;;
79047;SDS011;68680;50.764;6.120;2024-01-25T08:22:37;98.38;;;24.02;;
79047;SDS011;68680;50.764;6.120;2024-01-25T08:25:03;91.47;;;21.33;;
79047;SDS011;68680;50.764;6.120;2024-01-25T08:27:30;80.18;;;20.70;;
79047;SDS011;68680;50.764;6.120;2024-01-25T08:29:56;81.40;;;21.08;;
79047;SDS011;68680;50.764;6.120;2024-01-25T08:32:21;83.93;;;18.90;;
79047;SDS011;68680;50.764;6.120;2024-01-25T08:34:47;61.28;;;17.30;;
79047;SDS011;68680;50.764;6.120;2024-01-25T08:37:14;72.43;;;18.02;;
79047;SDS011;68680;50.764;6.120;2024-01-25T08:39:40;77.60;;;18.42;;
79047;SDS011;68680;50.764;6.120;2024-01-25T08:42:06;69.90;;;16.15;;
79047;SDS011;68680;50.764;6.120;2024-01-25T08:44:32;68.20;;;15.27;;
79047;SDS011;68680;50.764;6.120;2024-01-25T08:46:58;75.15;;;15.32;;
79047;SDS011;68680;50.764;6.120;2024-01-25T08:49:24;81.88;;;18.60;;
79047;SDS011;68680;50.764;6.120;2024-01-25T08:51:50;61.92;;;15.15;;
79047;SDS011;68680;50.764;6.120;2024-01-25T08:54:17;69.05;;;16.27;;
79047;SDS011;68680;50.764;6.120;2024-01-25T08:56:42;64.07;;;16.70;;
79047;SDS011;68680;50.764;6.120;2024-01-25T08:59:08;59.63;;;14.25;;
79047;SDS011;68680;50.764;6.120;2024-01-25T09:01:34;71.80;;;15.57;;
79047;SDS011;68680;50.764;6.120;2024-01-25T09:04:00;66.05;;;14.85;;
79047;SDS011;68680;50.764;6.120;2024-01-25T09:06:25;57.80;;;13.77;;
79047;SDS011;68680;50.764;6.120;2024-01-25T09:08:51;57.92;;;13.98;;
79047;SDS011;68680;50.764;6.120;2024-01-25T09:11:18;63.30;;;14.93;;
79047;SDS011;68680;50.764;6.120;2024-01-25T09:13:44;67.40;;;18.05;;
79047;SDS011;68680;50.764;6.120;2024-01-25T09:16:10;60.00;;;12.57;;
79047;SDS011;68680;50.764;6.120;2024-01-25T09:18:36;65.57;;;14.13;;
79047;SDS011;68680;50.764;6.120;2024-01-25T09:21:01;65.80;;;16.45;;
79047;SDS011;68680;50.764;6.120;2024-01-25T09:23:27;61.60;;;14.90;;
79047;SDS011;68680;50.764;6.120;2024-01-25T09:25:53;62.55;;;15.68;;
79047;SDS011;68680;50.764;6.120;2024-01-25T09:28:20;65.63;;;15.65;;
79047;SDS011;68680;50.764;6.120;2024-01-25T09:30:46;56.90;;;14.43;;
79047;SDS011;68680;50.764;6.120;2024-01-25T09:33:12;67.82;;;14.63;;
79047;SDS011;68680;50.764;6.120;2024-01-25T09:35:38;64.40;;;14.57;;
79047;SDS011;68680;50.764;6.120;2024-01-25T09:38:04;66.00;;;15.50;;
79047;SDS011;68680;50.764;6.120;2024-01-25T09:40:30;63.33;;;13.88;;
79047;SDS011;68680;50.764;6.120;2024-01-25T09:42:55;54.10;;;13.02;;
79047;SDS011;68680;50.764;6.120;2024-01-25T09:45:23;72.75;;;16.05;;
79047;SDS011;68680;50.764;6.120;2024-01-25T09:47:49;60.60;;;15.65;;
79047;SDS011;68680;50.764;6.120;2024-01-25T09:50:15;50.45;;;12.70;;
79047;SDS011;68680;50.764;6.120;2024-01-25T09:52:42;55.85;;;12.60;;
79047;SDS011;68680;50.764;6.120;2024-01-25T09:55:09;56.88;;;13.13;;
79047;SDS011;68680;50.764;6.120;2024-01-25T09:57:37;64.50;;;14.18;;
79047;SDS011;68680;50.764;6.120;2024-01-25T10:00:04;44.08;;;11.80;;
79047;SDS011;68680;50.764;6.120;2024-01-25T10:02:32;48.92;;;11.55;;
79047;SDS011;68680;50.764;6.120;2024-01-25T10:04:58;52.20;;;11.10;;
79047;SDS011;68680;50.764;6.120;2024-01-25T10:07:37;45.10;;;9.27;;
79047;SDS011;68680;50.764;6.120;2024-01-25T10:10:04;50.90;;;10.35;;
79047;SDS011;68680;50.764;6.120;2024-01-25T10:12:31;42.08;;;9.88;;
79047;SDS011;68680;50.764;6.120;2024-01-25T10:14:57;46.03;;;11.70;;
79047;SDS011;68680;50.764;6.120;2024-01-25T10:17:23;50.92;;;10.48;;
79047;SDS011;68680;50.764;6.120;2024-01-25T10:19:50;42.60;;;9.20;;
79047;SDS011;68680;50.764;6.120;2024-01-25T10:22:16;65.38;;;10.45;;
79047;SDS011;68680;50.764;6.120;2024-01-25T10:24:43;42.28;;;9.77;;
79047;SDS011;68680;50.764;6.120;2024-01-25T10:27:08;39.42;;;8.10;;
79047;SDS011;68680;50.764;6.120;2024-01-25T10:29:35;42.38;;;8.60;;
79047;SDS011;68680;50.764;6.120;2024-01-25T10:32:02;35.58;;;8.68;;
79047;SDS011;68680;50.764;6.120;2024-01-25T10:34:29;45.13;;;9.13;;
79047;SDS011;68680;50.764;6.120;2024-01-25T10:36:57;46.85;;;8.48;;
79047;SDS011;68680;50.764;6.120;2024-01-25T10:39:24;41.78;;;7.97;;
79047;SDS011;68680;50.764;6.120;2024-01-25T10:41:50;48.38;;;8.68;;
79047;SDS011;68680;50.764;6.120;2024-01-25T10:44:16;42.30;;;9.43;;
79047;SDS011;68680;50.764;6.120;2024-01-25T10:46:41;41.47;;;8.30;;
79047;SDS011;68680;50.764;6.120;2024-01-25T10:49:11;53.35;;;8.63;;
79047;SDS011;68680;50.764;6.120;2024-01-25T10:51:37;50.38;;;8.57;;
79047;SDS011;68680;50.764;6.120;2024-01-25T10:54:06;35.60;;;8.05;;
79047;SDS011;68680;50.764;6.120;2024-01-25T10:56:34;42.97;;;10.52;;
79047;SDS011;68680;50.764;6.120;2024-01-25T10:59:00;43.78;;;7.88;;
79047;SDS011;68680;50.764;6.120;2024-01-25T11:01:26;48.38;;;8.25;;
79047;SDS011;68680;50.764;6.120;2024-01-25T11:03:52;43.15;;;8.35;;
79047;SDS011;68680;50.764;6.120;2024-01-25T11:06:18;40.63;;;8.20;;
79047;SDS011;68680;50.764;6.120;2024-01-25T11:08:47;33.65;;;8.55;;
79047;SDS011;68680;50.764;6.120;2024-01-25T11:11:14;45.70;;;7.93;;
79047;SDS011;68680;50.764;6.120;2024-01-25T11:13:41;41.53;;;7.22;;
79047;SDS011;68680;50.764;6.120;2024-01-25T11:16:12;28.02;;;8.30;;
79047;SDS011;68680;50.764;6.120;2024-01-25T11:18:49;38.42;;;8.88;;
79047;SDS011;68680;50.764;6.120;2024-01-25T11:21:24;40.88;;;8.15;;
79047;SDS011;68680;50.764;6.120;2024-01-25T11:23:58;47.92;;;9.02;;
79047;SDS011;68680;50.764;6.120;2024-01-25T11:26:26;37.95;;;8.98;;
79047;SDS011;68680;50.764;6.120;2024-01-25T11:28:52;41.33;;;8.55;;
79047;SDS011;68680;50.764;6.120;2024-01-25T11:31:18;37.00;;;7.47;;
79047;SDS011;68680;50.764;6.120;2024-01-25T11:33:44;40.00;;;7.15;;
79047;SDS011;68680;50.764;6.120;2024-01-25T11:36:11;35.63;;;7.28;;
79047;SDS011;68680;50.764;6.120;2024-01-25T11:38:36;38.92;;;8.10;;
79047;SDS011;68680;50.764;6.120;2024-01-25T11:41:02;31.27;;;6.43;;
79047;SDS011;68680;50.764;6.120;2024-01-25T11:43:29;48.42;;;7.70;;
79047;SDS011;68680;50.764;6.120;2024-01-25T11:45:55;33.90;;;9.13;;
79047;SDS011;68680;50.764;6.120;2024-01-25T11:48:21;36.33;;;7.80;;
79047;SDS011;68680;50.764;6.120;2024-01-25T11:50:47;35.55;;;8.55;;
79047;SDS011;68680;50.764;6.120;2024-01-25T11:53:12;32.72;;;7.50;;
79047;SDS011;68680;50.764;6.120;2024-01-25T11:55:38;34.25;;;7.05;;
79047;SDS011;68680;50.764;6.120;2024-01-25T11:58:04;36.78;;;8.45;;
79047;SDS011;68680;50.764;6.120;2024-01-25T12:00:32;38.47;;;6.75;;
79047;SDS011;68680;50.764;6.120;2024-01-25T12:02:57;41.80;;;7.68;;
79047;SDS011;68680;50.764;6.120;2024-01-25T12:05:23;42.22;;;8.63;;
79047;SDS011;68680;50.764;6.120;2024-01-25T12:07:51;38.33;;;7.18;;
79047;SDS011;68680;50.764;6.120;2024-01-25T12:10:16;26.98;;;5.75;;
79047;SDS011;68680;50.764;6.120;2024-01-25T12:12:42;26.40;;;6.72;;
79047;SDS011;68680;50.764;6.120;2024-01-25T12:15:08;38.42;;;5.38;;
79047;SDS011;68680;50.764;6.120;2024-01-25T12:17:35;23.48;;;7.05;;
79047;SDS011;68680;50.764;6.120;2024-01-25T12:20:02;38.33;;;8.00;;
79047;SDS011;68680;50.764;6.120;2024-01-25T12:22:28;39.42;;;5.65;;
79047;SDS011;68680;50.764;6.120;2024-01-25T12:24:55;25.05;;;6.15;;
79047;SDS011;68680;50.764;6.120;2024-01-25T12:27:22;28.92;;;7.60;;
79047;SDS011;68680;50.764;6.120;2024-01-25T12:29:49;34.05;;;4.95;;
79047;SDS011;68680;50.764;6.120;2024-01-25T12:32:16;22.80;;;4.53;;
79047;SDS011;68680;50.764;6.120;2024-01-25T12:34:43;35.28;;;6.30;;
79047;SDS011;68680;50.764;6.120;2024-01-25T12:37:18;42.45;;;5.45;;
79047;SDS011;68680;50.764;6.120;2024-01-25T12:39:44;25.75;;;6.20;;
79047;SDS011;68680;50.764;6.120;2024-01-25T12:42:10;20.67;;;4.60;;
79047;SDS011;68680;50.764;6.120;2024-01-25T12:44:35;35.35;;;6.55;;
79047;SDS011;68680;50.764;6.120;2024-01-25T12:47:01;29.63;;;5.72;;
79047;SDS011;68680;50.764;6.120;2024-01-25T12:49:28;32.00;;;6.20;;
79047;SDS011;68680;50.764;6.120;2024-01-25T12:51:55;33.50;;;5.22;;
79047;SDS011;68680;50.764;6.120;2024-01-25T12:54:21;31.38;;;5.60;;
79047;SDS011;68680;50.764;6.120;2024-01-25T12:56:47;28.20;;;5.18;;
79047;SDS011;68680;50.764;6.120;2024-01-25T12:59:12;29.13;;;5.10;;
79047;SDS011;68680;50.764;6.120;2024-01-25T13:01:38;31.98;;;5.10;;
79047;SDS011;68680;50.764;6.120;2024-01-25T13:04:04;40.45;;;5.68;;
79047;SDS011;68680;50.764;6.120;2024-01-25T13:06:30;35.42;;;5.53;;
79047;SDS011;68680;50.764;6.120;2024-01-25T13:08:57;38.55;;;5.97;;
79047;SDS011;68680;50.764;6.120;2024-01-25T13:11:23;30.00;;;4.93;;
79047;SDS011;68680;50.764;6.120;2024-01-25T13:13:49;34.00;;;5.95;;
79047;SDS011;68680;50.764;6.120;2024-01-25T13:16:14;30.67;;;5.32;;
79047;SDS011;68680;50.764;6.120;2024-01-25T13:18:40;30.50;;;5.00;;
79047;SDS011;68680;50.764;6.120;2024-01-25T13:21:06;22.13;;;4.28;;
79047;SDS011;68680;50.764;6.120;2024-01-25T13:23:32;27.63;;;5.32;;
79047;SDS011;68680;50.764;6.120;2024-01-25T13:25:59;29.27;;;4.68;;
79047;SDS011;68680;50.764;6.120;2024-01-25T13:28:24;30.75;;;5.22;;
79047;SDS011;68680;50.764;6.120;2024-01-25T13:30:50;24.23;;;4.25;;
79047;SDS011;68680;50.764;6.120;2024-01-25T13:33:16;22.63;;;4.40;;
79047;SDS011;68680;50.764;6.120;2024-01-25T13:35:42;30.25;;;5.85;;
79047;SDS011;68680;50.764;6.120;2024-01-25T13:38:07;35.17;;;5.40;;
79047;SDS011;68680;50.764;6.120;2024-01-25T13:40:33;28.45;;;6.75;;
79047;SDS011;68680;50.764;6.120;2024-01-25T13:43:00;31.45;;;5.25;;
79047;SDS011;68680;50.764;6.120;2024-01-25T13:45:26;20.88;;;4.22;;
79047;SDS011;68680;50.764;6.120;2024-01-25T13:47:52;17.48;;;3.28;;
79047;SDS011;68680;50.764;6.120;2024-01-25T13:50:17;19.98;;;2.83;;
79047;SDS011;68680;50.764;6.120;2024-01-25T13:52:43;19.45;;;2.75;;
79047;SDS011;68680;50.764;6.120;2024-01-25T13:55:09;13.35;;;2.95;;
79047;SDS011;68680;50.764;6.120;2024-01-25T13:57:35;21.90;;;2.85;;
79047;SDS011;68680;50.764;6.120;2024-01-25T14:00:02;17.90;;;2.55;;
79047;SDS011;68680;50.764;6.120;2024-01-25T14:02:28;26.95;;;5.10;;
79047;SDS011;68680;50.764;6.120;2024-01-25T14:04:54;10.95;;;2.90;;
79047;SDS011;68680;50.764;6.120;2024-01-25T14:07:20;21.05;;;3.58;;
79047;SDS011;68680;50.764;6.120;2024-01-25T14:09:46;15.65;;;3.38;;
79047;SDS011;68680;50.764;6.120;2024-01-25T14:12:11;14.02;;;3.72;;
79047;SDS011;68680;50.764;6.120;2024-01-25T14:14:37;25.13;;;3.75;;
79047;SDS011;68680;50.764;6.120;2024-01-25T14:17:04;24.20;;;3.85;;
79047;SDS011;68680;50.764;6.120;2024-01-25T14:19:30;23.25;;;4.55;;